RYR61PH LIPE-LICA
Flight info
| Callsign | RYR61PH |
|---|---|
| Flight time | 1h 11m |
| Altitude | 37000 |
| Route | PELEG M726 BAGNO DCT POLIT DCT EVINO M620 ARBUM |
| Aircraft | B738/M-SDE2E3FGHIRWXY/LB1 |
Departure
| Time | 2026-04-20 15:11 |
|---|---|
| Airport | Bologna Guglielmo Marconi Airport (LIPE) |
Arrival
| Time | 2026-04-20 16:22 |
|---|---|
| Airport | Lamezia Terme Sant'Eufemia International Airport (LICA) |
| Time | Latitude | Longitude | Altitude | Speed | Heading |
|---|---|---|---|---|---|
| 2026-04-20 14:50 | 44.53037 | 11.29432 | 126 ft | 0 kts | 206° |
| 2026-04-20 14:59 | 44.53041 | 11.29436 | 126 ft | 2 kts | 206° |
| 2026-04-20 14:59 | 44.53059 | 11.29448 | 121 ft | 3 kts | 201° |
| 2026-04-20 15:00 | 44.53077 | 11.29454 | 122 ft | 3 kts | 170° |
| 2026-04-20 15:00 | 44.53087 | 11.29449 | 122 ft | 1 kts | 118° |
| 2026-04-20 15:00 | 44.53088 | 11.29446 | 123 ft | 0 kts | 116° |
| 2026-04-20 15:04 | 44.53078 | 11.29476 | 135 ft | 9 kts | 116° |
| 2026-04-20 15:04 | 44.53067 | 11.29562 | 126 ft | 3 kts | 45° |
| 2026-04-20 15:04 | 44.53109 | 11.29532 | 124 ft | 13 kts | 297° |
| 2026-04-20 15:04 | 44.53167 | 11.29369 | 123 ft | 24 kts | 296° |
| 2026-04-20 15:05 | 44.53258 | 11.29112 | 123 ft | 34 kts | 296° |
| 2026-04-20 15:05 | 44.53377 | 11.28782 | 123 ft | 42 kts | 297° |
| 2026-04-20 15:05 | 44.53502 | 11.28432 | 123 ft | 37 kts | 296° |
| 2026-04-20 15:05 | 44.53568 | 11.28248 | 124 ft | 10 kts | 296° |
| 2026-04-20 15:06 | 44.53598 | 11.28165 | 125 ft | 10 kts | 296° |
| 2026-04-20 15:06 | 44.53627 | 11.28083 | 124 ft | 9 kts | 296° |
| 2026-04-20 15:06 | 44.53657 | 11.27999 | 123 ft | 11 kts | 296° |
| 2026-04-20 15:06 | 44.53707 | 11.27862 | 124 ft | 21 kts | 297° |
| 2026-04-20 15:07 | 44.53783 | 11.27653 | 125 ft | 22 kts | 298° |
| 2026-04-20 15:07 | 44.53875 | 11.27568 | 123 ft | 0 kts | 8° |
| 2026-04-20 15:08 | 44.53877 | 11.27568 | 125 ft | 1 kts | 8° |
| 2026-04-20 15:08 | 44.53916 | 11.27587 | 123 ft | 11 kts | 28° |
| 2026-04-20 15:09 | 44.53961 | 11.27697 | 122 ft | 10 kts | 93° |
| 2026-04-20 15:09 | 44.53956 | 11.27718 | 123 ft | 0 kts | 111° |
| 2026-04-20 15:10 | 44.53895 | 11.27893 | 121 ft | 54 kts | 116° |
| 2026-04-20 15:10 | 44.53618 | 11.28665 | 126 ft | 121 kts | 116° |
| 2026-04-20 15:10 | 44.53172 | 11.29964 | 195 ft | 169 kts | 114° |
| 2026-04-20 15:11 | 44.52776 | 11.31547 | 709 ft | 177 kts | 91° |
| 2026-04-20 15:11 | 44.53235 | 11.33224 | 1086 ft | 203 kts | 44° |
| 2026-04-20 15:11 | 44.54463 | 11.34213 | 1787 ft | 203 kts | 25° |
| 2026-04-20 15:11 | 44.55769 | 11.34964 | 2351 ft | 214 kts | 23° |
| 2026-04-20 15:12 | 44.57036 | 11.36065 | 3029 ft | 207 kts | 33° |
| 2026-04-20 15:12 | 44.58260 | 11.37088 | 3761 ft | 211 kts | 29° |
| 2026-04-20 15:12 | 44.59599 | 11.38106 | 4186 ft | 224 kts | 27° |
| 2026-04-20 15:12 | 44.61010 | 11.39134 | 4695 ft | 233 kts | 26° |
| 2026-04-20 15:13 | 44.62417 | 11.40173 | 5527 ft | 224 kts | 26° |
| 2026-04-20 15:13 | 44.63821 | 11.41246 | 6087 ft | 235 kts | 26° |
| 2026-04-20 15:13 | 44.65231 | 11.42432 | 6613 ft | 250 kts | 38° |
| 2026-04-20 15:13 | 44.66165 | 11.44564 | 7054 ft | 268 kts | 77° |
| 2026-04-20 15:14 | 44.66115 | 11.47173 | 7728 ft | 272 kts | 109° |
| 2026-04-20 15:14 | 44.65164 | 11.49437 | 8432 ft | 271 kts | 139° |
| 2026-04-20 15:14 | 44.63569 | 11.50763 | 9122 ft | 267 kts | 169° |
| 2026-04-20 15:14 | 44.61755 | 11.50727 | 9823 ft | 260 kts | 203° |
| 2026-04-20 15:15 | 44.60153 | 11.49586 | 10513 ft | 258 kts | 214° |
| 2026-04-20 15:15 | 44.58593 | 11.48295 | 11171 ft | 262 kts | 214° |
| 2026-04-20 15:15 | 44.57005 | 11.46992 | 11876 ft | 265 kts | 214° |
| 2026-04-20 15:15 | 44.55394 | 11.45697 | 12596 ft | 269 kts | 212° |
| 2026-04-20 15:16 | 44.53561 | 11.44963 | 13216 ft | 287 kts | 187° |
| 2026-04-20 15:16 | 44.51480 | 11.45282 | 13410 ft | 318 kts | 167° |
| 2026-04-20 15:16 | 44.49315 | 11.46374 | 13621 ft | 343 kts | 162° |
| 2026-04-20 15:16 | 44.47031 | 11.47675 | 13804 ft | 365 kts | 161° |
| 2026-04-20 15:17 | 44.44639 | 11.49078 | 14198 ft | 378 kts | 160° |
| 2026-04-20 15:17 | 44.42229 | 11.50491 | 14820 ft | 383 kts | 161° |
| 2026-04-20 15:17 | 44.39754 | 11.51926 | 15519 ft | 386 kts | 161° |
| 2026-04-20 15:17 | 44.37256 | 11.53358 | 16214 ft | 389 kts | 161° |
| 2026-04-20 15:18 | 44.34732 | 11.54790 | 16889 ft | 393 kts | 162° |
| 2026-04-20 15:18 | 44.32176 | 11.56230 | 17529 ft | 398 kts | 162° |
| 2026-04-20 15:18 | 44.29585 | 11.57683 | 18173 ft | 403 kts | 162° |
| 2026-04-20 15:18 | 44.26993 | 11.59134 | 18740 ft | 407 kts | 162° |
| 2026-04-20 15:19 | 44.24356 | 11.60609 | 19314 ft | 411 kts | 162° |
| 2026-04-20 15:19 | 44.21692 | 11.62097 | 19889 ft | 414 kts | 162° |
| 2026-04-20 15:19 | 44.19006 | 11.63596 | 20445 ft | 417 kts | 163° |
| 2026-04-20 15:19 | 44.16293 | 11.65109 | 20998 ft | 421 kts | 163° |
| 2026-04-20 15:20 | 44.13566 | 11.66630 | 21548 ft | 423 kts | 163° |
| 2026-04-20 15:20 | 44.10822 | 11.68158 | 22012 ft | 427 kts | 163° |
| 2026-04-20 15:20 | 44.08040 | 11.69703 | 22454 ft | 432 kts | 163° |
| 2026-04-20 15:20 | 44.05233 | 11.71261 | 22922 ft | 436 kts | 163° |
| 2026-04-20 15:21 | 44.02442 | 11.72809 | 23423 ft | 439 kts | 163° |
| 2026-04-20 15:21 | 43.99587 | 11.74392 | 23811 ft | 442 kts | 162° |
| 2026-04-20 15:21 | 43.96709 | 11.75989 | 24153 ft | 447 kts | 163° |
| 2026-04-20 15:21 | 43.93798 | 11.77601 | 24609 ft | 449 kts | 163° |
| 2026-04-20 15:22 | 43.90885 | 11.79210 | 25025 ft | 451 kts | 163° |
| 2026-04-20 15:22 | 43.88027 | 11.80994 | 25413 ft | 459 kts | 155° |
| 2026-04-20 15:22 | 43.85267 | 11.83288 | 25798 ft | 464 kts | 152° |
| 2026-04-20 15:22 | 43.82522 | 11.85687 | 26200 ft | 467 kts | 151° |
| 2026-04-20 15:23 | 43.79775 | 11.88120 | 26574 ft | 470 kts | 151° |
| 2026-04-20 15:23 | 43.77012 | 11.90566 | 26926 ft | 473 kts | 151° |
| 2026-04-20 15:23 | 43.74230 | 11.93012 | 27315 ft | 475 kts | 151° |
| 2026-04-20 15:23 | 43.71461 | 11.95429 | 27677 ft | 477 kts | 151° |
| 2026-04-20 15:24 | 43.68634 | 11.97879 | 27984 ft | 480 kts | 152° |
| 2026-04-20 15:24 | 43.65790 | 12.00333 | 28313 ft | 483 kts | 152° |
| 2026-04-20 15:24 | 43.62922 | 12.02801 | 28620 ft | 486 kts | 152° |
| 2026-04-20 15:24 | 43.60040 | 12.05275 | 28942 ft | 489 kts | 152° |
| 2026-04-20 15:25 | 43.57141 | 12.07762 | 29265 ft | 492 kts | 152° |
| 2026-04-20 15:25 | 43.54221 | 12.10264 | 29583 ft | 494 kts | 152° |
| 2026-04-20 15:25 | 43.51293 | 12.12771 | 29883 ft | 497 kts | 152° |
| 2026-04-20 15:25 | 43.48342 | 12.15294 | 30151 ft | 499 kts | 152° |
| 2026-04-20 15:26 | 43.45384 | 12.17821 | 30421 ft | 501 kts | 151° |
| 2026-04-20 15:26 | 43.42417 | 12.20353 | 30716 ft | 502 kts | 151° |
| 2026-04-20 15:26 | 43.39447 | 12.22886 | 31071 ft | 501 kts | 152° |
| 2026-04-20 15:26 | 43.36529 | 12.25372 | 31435 ft | 500 kts | 152° |
| 2026-04-20 15:27 | 43.33571 | 12.27889 | 31789 ft | 499 kts | 152° |
| 2026-04-20 15:27 | 43.30618 | 12.30398 | 32112 ft | 499 kts | 152° |
| 2026-04-20 15:27 | 43.27662 | 12.32906 | 32428 ft | 499 kts | 152° |
| 2026-04-20 15:27 | 43.24705 | 12.35412 | 32762 ft | 499 kts | 152° |
| 2026-04-20 15:28 | 43.21755 | 12.37909 | 33081 ft | 498 kts | 152° |
| 2026-04-20 15:28 | 43.19806 | 12.39558 | 33294 ft | 498 kts | 152° |
| 2026-04-20 15:28 | 43.16852 | 12.42053 | 33595 ft | 497 kts | 152° |
| 2026-04-20 15:28 | 43.13901 | 12.44542 | 33913 ft | 497 kts | 152° |
| 2026-04-20 15:29 | 43.10957 | 12.47024 | 34203 ft | 496 kts | 152° |
| 2026-04-20 15:29 | 43.08014 | 12.49502 | 34486 ft | 496 kts | 152° |
| 2026-04-20 15:29 | 43.05079 | 12.51971 | 34759 ft | 495 kts | 152° |
| 2026-04-20 15:29 | 43.02147 | 12.54433 | 35015 ft | 494 kts | 152° |
| 2026-04-20 15:30 | 42.99211 | 12.56897 | 35272 ft | 494 kts | 152° |
| 2026-04-20 15:30 | 42.96319 | 12.59321 | 35587 ft | 493 kts | 152° |
| 2026-04-20 15:30 | 42.93392 | 12.61772 | 35879 ft | 492 kts | 152° |
| 2026-04-20 15:30 | 42.90474 | 12.64212 | 36152 ft | 491 kts | 152° |
| 2026-04-20 15:31 | 42.87560 | 12.66647 | 36402 ft | 490 kts | 152° |
| 2026-04-20 15:31 | 42.84644 | 12.69079 | 36637 ft | 490 kts | 152° |
| 2026-04-20 15:31 | 42.81734 | 12.71504 | 36887 ft | 489 kts | 152° |
| 2026-04-20 15:32 | 42.75893 | 12.76362 | 36976 ft | 493 kts | 152° |
| 2026-04-20 15:32 | 42.70049 | 12.81215 | 36987 ft | 489 kts | 152° |
| 2026-04-20 15:33 | 42.64286 | 12.85991 | 36987 ft | 486 kts | 153° |
| 2026-04-20 15:33 | 42.58517 | 12.90760 | 36983 ft | 484 kts | 153° |
| 2026-04-20 15:34 | 42.52772 | 12.95499 | 36970 ft | 483 kts | 153° |
| 2026-04-20 15:34 | 42.47027 | 13.00224 | 36998 ft | 486 kts | 153° |
| 2026-04-20 15:35 | 42.41203 | 13.05001 | 37002 ft | 493 kts | 153° |
| 2026-04-20 15:35 | 42.35308 | 13.09830 | 36993 ft | 497 kts | 152° |
| 2026-04-20 15:36 | 42.29426 | 13.14643 | 36975 ft | 490 kts | 153° |
| 2026-04-20 15:36 | 42.23644 | 13.19364 | 36986 ft | 487 kts | 153° |
| 2026-04-20 15:37 | 42.17846 | 13.24082 | 36985 ft | 486 kts | 153° |
| 2026-04-20 15:37 | 42.12046 | 13.28790 | 36980 ft | 486 kts | 153° |
| 2026-04-20 15:38 | 42.06250 | 13.33487 | 36985 ft | 486 kts | 153° |
| 2026-04-20 15:38 | 42.00441 | 13.38184 | 36994 ft | 487 kts | 153° |
| 2026-04-20 15:39 | 41.94654 | 13.42854 | 36989 ft | 489 kts | 153° |
| 2026-04-20 15:39 | 41.88805 | 13.47562 | 36995 ft | 491 kts | 153° |
| 2026-04-20 15:40 | 41.82924 | 13.52287 | 36997 ft | 493 kts | 153° |
| 2026-04-20 15:40 | 41.77029 | 13.57014 | 36957 ft | 492 kts | 153° |
| 2026-04-20 15:41 | 41.71205 | 13.61676 | 37025 ft | 488 kts | 153° |
| 2026-04-20 15:41 | 41.65341 | 13.66357 | 37011 ft | 490 kts | 153° |
| 2026-04-20 15:42 | 41.59509 | 13.71001 | 37018 ft | 491 kts | 153° |
| 2026-04-20 15:42 | 41.53619 | 13.75682 | 37012 ft | 493 kts | 153° |
| 2026-04-20 15:43 | 41.47699 | 13.80378 | 36994 ft | 494 kts | 153° |
| 2026-04-20 15:43 | 41.41784 | 13.85060 | 37005 ft | 494 kts | 153° |
| 2026-04-20 15:44 | 41.35903 | 13.89705 | 37001 ft | 494 kts | 153° |
| 2026-04-20 15:44 | 41.29972 | 13.94380 | 37018 ft | 494 kts | 153° |
| 2026-04-20 15:45 | 41.24046 | 13.99041 | 37013 ft | 493 kts | 153° |
| 2026-04-20 15:45 | 41.18170 | 14.03652 | 37019 ft | 492 kts | 153° |
| 2026-04-20 15:46 | 41.12275 | 14.08269 | 37016 ft | 492 kts | 153° |
| 2026-04-20 15:46 | 41.06383 | 14.12873 | 37021 ft | 491 kts | 153° |
| 2026-04-20 15:47 | 41.00485 | 14.17472 | 37022 ft | 491 kts | 153° |
| 2026-04-20 15:47 | 40.94597 | 14.22055 | 37022 ft | 491 kts | 153° |
| 2026-04-20 15:48 | 40.88742 | 14.26601 | 37018 ft | 491 kts | 153° |
| 2026-04-20 15:48 | 40.82846 | 14.31170 | 37021 ft | 491 kts | 153° |
| 2026-04-20 15:49 | 40.76946 | 14.35733 | 37019 ft | 491 kts | 153° |
| 2026-04-20 15:49 | 40.71084 | 14.40257 | 37021 ft | 491 kts | 153° |
| 2026-04-20 15:50 | 40.65167 | 14.44814 | 37025 ft | 492 kts | 153° |
| 2026-04-20 15:50 | 40.59257 | 14.49357 | 37047 ft | 490 kts | 153° |
| 2026-04-20 15:51 | 40.53349 | 14.53887 | 37035 ft | 491 kts | 153° |
| 2026-04-20 15:51 | 40.47445 | 14.58407 | 37031 ft | 491 kts | 153° |
| 2026-04-20 15:52 | 40.41564 | 14.62899 | 37033 ft | 491 kts | 153° |
| 2026-04-20 15:52 | 40.38612 | 14.65151 | 36905 ft | 489 kts | 153° |
| 2026-04-20 15:52 | 40.35670 | 14.67394 | 36427 ft | 486 kts | 153° |
| 2026-04-20 15:53 | 40.29835 | 14.71833 | 35235 ft | 485 kts | 153° |
| 2026-04-20 15:53 | 40.26911 | 14.74053 | 34607 ft | 486 kts | 153° |
| 2026-04-20 15:53 | 40.23977 | 14.76279 | 33949 ft | 487 kts | 153° |
| 2026-04-20 15:53 | 40.21040 | 14.78507 | 33187 ft | 489 kts | 153° |
| 2026-04-20 15:54 | 40.18092 | 14.80739 | 32453 ft | 490 kts | 153° |
| 2026-04-20 15:54 | 40.15167 | 14.82996 | 31960 ft | 486 kts | 150° |
| 2026-04-20 15:54 | 40.12451 | 14.85620 | 31461 ft | 485 kts | 141° |
| 2026-04-20 15:54 | 40.09939 | 14.88463 | 30998 ft | 481 kts | 140° |
| 2026-04-20 15:55 | 40.07444 | 14.91354 | 30518 ft | 478 kts | 140° |
| 2026-04-20 15:55 | 40.04968 | 14.94229 | 30034 ft | 475 kts | 140° |
| 2026-04-20 15:55 | 40.02494 | 14.97079 | 29479 ft | 472 kts | 140° |
| 2026-04-20 15:55 | 40.00033 | 14.99888 | 28968 ft | 467 kts | 140° |
| 2026-04-20 15:56 | 39.97583 | 15.02664 | 28479 ft | 463 kts | 141° |
| 2026-04-20 15:56 | 39.95158 | 15.05399 | 27982 ft | 459 kts | 141° |
| 2026-04-20 15:56 | 39.92750 | 15.08108 | 27483 ft | 455 kts | 141° |
| 2026-04-20 15:56 | 39.90360 | 15.10793 | 27004 ft | 452 kts | 141° |
| 2026-04-20 15:57 | 39.87991 | 15.13453 | 26529 ft | 448 kts | 141° |
| 2026-04-20 15:57 | 39.85661 | 15.16068 | 26064 ft | 445 kts | 141° |
| 2026-04-20 15:57 | 39.83324 | 15.18690 | 25599 ft | 442 kts | 141° |
| 2026-04-20 15:57 | 39.80999 | 15.21296 | 25127 ft | 440 kts | 141° |
| 2026-04-20 15:58 | 39.78688 | 15.23884 | 24668 ft | 437 kts | 141° |
| 2026-04-20 15:58 | 39.76388 | 15.26459 | 24202 ft | 435 kts | 141° |
| 2026-04-20 15:58 | 39.74096 | 15.29021 | 23717 ft | 433 kts | 141° |
| 2026-04-20 15:58 | 39.71816 | 15.31567 | 23192 ft | 431 kts | 141° |
| 2026-04-20 15:59 | 39.69545 | 15.34100 | 22674 ft | 428 kts | 141° |
| 2026-04-20 15:59 | 39.67288 | 15.36617 | 22178 ft | 425 kts | 141° |
| 2026-04-20 15:59 | 39.65054 | 15.39106 | 21712 ft | 422 kts | 141° |
| 2026-04-20 15:59 | 39.62836 | 15.41576 | 21246 ft | 418 kts | 141° |
| 2026-04-20 16:00 | 39.60632 | 15.44028 | 20794 ft | 415 kts | 141° |
| 2026-04-20 16:00 | 39.58473 | 15.46428 | 20343 ft | 412 kts | 141° |
| 2026-04-20 16:00 | 39.56303 | 15.48839 | 19903 ft | 409 kts | 141° |
| 2026-04-20 16:00 | 39.54149 | 15.51230 | 19457 ft | 406 kts | 141° |
| 2026-04-20 16:01 | 39.52009 | 15.53603 | 19016 ft | 404 kts | 141° |
| 2026-04-20 16:01 | 39.49865 | 15.55978 | 18571 ft | 402 kts | 141° |
| 2026-04-20 16:01 | 39.47773 | 15.58295 | 18101 ft | 400 kts | 141° |
| 2026-04-20 16:01 | 39.45666 | 15.60625 | 17609 ft | 397 kts | 141° |
| 2026-04-20 16:02 | 39.43574 | 15.62937 | 17144 ft | 394 kts | 141° |
| 2026-04-20 16:02 | 39.41495 | 15.65232 | 16700 ft | 390 kts | 141° |
| 2026-04-20 16:02 | 39.39435 | 15.67507 | 16259 ft | 387 kts | 141° |
| 2026-04-20 16:02 | 39.37397 | 15.69755 | 15831 ft | 384 kts | 141° |
| 2026-04-20 16:03 | 39.35373 | 15.71985 | 15404 ft | 381 kts | 141° |
| 2026-04-20 16:03 | 39.33365 | 15.74197 | 14983 ft | 378 kts | 141° |
| 2026-04-20 16:03 | 39.31368 | 15.76395 | 14555 ft | 375 kts | 141° |
| 2026-04-20 16:03 | 39.29388 | 15.78570 | 14131 ft | 373 kts | 141° |
| 2026-04-20 16:04 | 39.27502 | 15.80852 | 13685 ft | 372 kts | 132° |
| 2026-04-20 16:04 | 39.25946 | 15.83495 | 13292 ft | 367 kts | 126° |
| 2026-04-20 16:04 | 39.24463 | 15.86170 | 12849 ft | 365 kts | 126° |
| 2026-04-20 16:04 | 39.22994 | 15.88825 | 12429 ft | 362 kts | 126° |
| 2026-04-20 16:05 | 39.21532 | 15.91457 | 12010 ft | 359 kts | 126° |
| 2026-04-20 16:05 | 39.20080 | 15.94059 | 11595 ft | 356 kts | 126° |
| 2026-04-20 16:05 | 39.18655 | 15.96602 | 11197 ft | 353 kts | 126° |
| 2026-04-20 16:05 | 39.17219 | 15.99156 | 10791 ft | 351 kts | 126° |
| 2026-04-20 16:06 | 39.15805 | 16.01667 | 10631 ft | 340 kts | 126° |
| 2026-04-20 16:06 | 39.14431 | 16.04102 | 10476 ft | 331 kts | 126° |
| 2026-04-20 16:06 | 39.13096 | 16.06464 | 10333 ft | 321 kts | 126° |
| 2026-04-20 16:06 | 39.11791 | 16.08774 | 10211 ft | 313 kts | 126° |
| 2026-04-20 16:07 | 39.10524 | 16.11017 | 10071 ft | 306 kts | 126° |
| 2026-04-20 16:07 | 39.09277 | 16.13218 | 9795 ft | 304 kts | 126° |
| 2026-04-20 16:07 | 39.08035 | 16.15410 | 9489 ft | 302 kts | 126° |
| 2026-04-20 16:07 | 39.06800 | 16.17587 | 9172 ft | 300 kts | 126° |
| 2026-04-20 16:08 | 39.05587 | 16.19722 | 8908 ft | 299 kts | 126° |
| 2026-04-20 16:08 | 39.04360 | 16.21882 | 8602 ft | 299 kts | 126° |
| 2026-04-20 16:08 | 39.03133 | 16.24042 | 8306 ft | 297 kts | 126° |
| 2026-04-20 16:08 | 39.01916 | 16.26187 | 8009 ft | 297 kts | 126° |
| 2026-04-20 16:09 | 39.00695 | 16.28332 | 7714 ft | 298 kts | 126° |
| 2026-04-20 16:09 | 38.99469 | 16.30485 | 7384 ft | 296 kts | 126° |
| 2026-04-20 16:09 | 38.98273 | 16.32579 | 7114 ft | 294 kts | 126° |
| 2026-04-20 16:09 | 38.97070 | 16.34693 | 6842 ft | 293 kts | 126° |
| 2026-04-20 16:10 | 38.95864 | 16.36809 | 6539 ft | 293 kts | 126° |
| 2026-04-20 16:10 | 38.94660 | 16.38922 | 6236 ft | 293 kts | 126° |
| 2026-04-20 16:10 | 38.93454 | 16.41036 | 5923 ft | 292 kts | 126° |
| 2026-04-20 16:10 | 38.92248 | 16.43144 | 5640 ft | 292 kts | 126° |
| 2026-04-20 16:11 | 38.91055 | 16.45234 | 5416 ft | 288 kts | 126° |
| 2026-04-20 16:11 | 38.89875 | 16.47296 | 5261 ft | 284 kts | 126° |
| 2026-04-20 16:11 | 38.88743 | 16.49271 | 5105 ft | 271 kts | 126° |
| 2026-04-20 16:11 | 38.87659 | 16.51165 | 4983 ft | 256 kts | 126° |
| 2026-04-20 16:12 | 38.86515 | 16.52847 | 4987 ft | 245 kts | 136° |
| 2026-04-20 16:12 | 38.85285 | 16.54334 | 4977 ft | 242 kts | 138° |
| 2026-04-20 16:12 | 38.84046 | 16.55808 | 4985 ft | 245 kts | 137° |
| 2026-04-20 16:12 | 38.82786 | 16.57320 | 5002 ft | 251 kts | 137° |
| 2026-04-20 16:13 | 38.81511 | 16.58861 | 4982 ft | 251 kts | 137° |
| 2026-04-20 16:13 | 38.80244 | 16.60397 | 4977 ft | 250 kts | 137° |
| 2026-04-20 16:13 | 38.79182 | 16.62128 | 4958 ft | 247 kts | 111° |
| 2026-04-20 16:13 | 38.78910 | 16.64245 | 4965 ft | 240 kts | 81° |
| 2026-04-20 16:14 | 38.79485 | 16.66191 | 4961 ft | 234 kts | 49° |
| 2026-04-20 16:14 | 38.80781 | 16.67456 | 4999 ft | 243 kts | 18° |
| 2026-04-20 16:14 | 38.82492 | 16.67729 | 5030 ft | 254 kts | 349° |
| 2026-04-20 16:14 | 38.84089 | 16.66888 | 4982 ft | 252 kts | 320° |
| 2026-04-20 16:15 | 38.85048 | 16.65090 | 4858 ft | 244 kts | 287° |
| 2026-04-20 16:15 | 38.85411 | 16.63003 | 4770 ft | 236 kts | 282° |
| 2026-04-20 16:15 | 38.85718 | 16.60967 | 4639 ft | 229 kts | 282° |
| 2026-04-20 16:15 | 38.85915 | 16.59654 | 4567 ft | 222 kts | 282° |
| 2026-04-20 16:16 | 38.86202 | 16.57781 | 4498 ft | 204 kts | 282° |
| 2026-04-20 16:16 | 38.86559 | 16.55504 | 4241 ft | 189 kts | 282° |
| 2026-04-20 16:16 | 38.86734 | 16.54395 | 4095 ft | 186 kts | 283° |
| 2026-04-20 16:16 | 38.86988 | 16.52803 | 3903 ft | 178 kts | 283° |
| 2026-04-20 16:17 | 38.87232 | 16.51272 | 3708 ft | 173 kts | 282° |
| 2026-04-20 16:17 | 38.87466 | 16.49796 | 3500 ft | 169 kts | 282° |
| 2026-04-20 16:17 | 38.87699 | 16.48337 | 3326 ft | 164 kts | 281° |
| 2026-04-20 16:17 | 38.87905 | 16.46925 | 3237 ft | 165 kts | 280° |
| 2026-04-20 16:18 | 38.88096 | 16.45432 | 3039 ft | 174 kts | 279° |
| 2026-04-20 16:18 | 38.88267 | 16.43961 | 2821 ft | 162 kts | 279° |
| 2026-04-20 16:18 | 38.88434 | 16.42572 | 2611 ft | 154 kts | 278° |
| 2026-04-20 16:18 | 38.88586 | 16.41250 | 2426 ft | 148 kts | 278° |
| 2026-04-20 16:19 | 38.88730 | 16.39944 | 2207 ft | 146 kts | 277° |
| 2026-04-20 16:19 | 38.88870 | 16.38707 | 2039 ft | 144 kts | 277° |
| 2026-04-20 16:19 | 38.89014 | 16.37457 | 1839 ft | 138 kts | 276° |
| 2026-04-20 16:19 | 38.89153 | 16.36243 | 1666 ft | 139 kts | 278° |
| 2026-04-20 16:20 | 38.89295 | 16.35004 | 1450 ft | 139 kts | 277° |
| 2026-04-20 16:20 | 38.89433 | 16.33799 | 1278 ft | 139 kts | 278° |
| 2026-04-20 16:20 | 38.89575 | 16.32581 | 1091 ft | 137 kts | 277° |
| 2026-04-20 16:20 | 38.89704 | 16.31383 | 840 ft | 135 kts | 276° |
| 2026-04-20 16:21 | 38.89834 | 16.30178 | 594 ft | 142 kts | 277° |
| 2026-04-20 16:21 | 38.89977 | 16.28931 | 488 ft | 141 kts | 277° |
| 2026-04-20 16:21 | 38.90131 | 16.27729 | 346 ft | 134 kts | 276° |
| 2026-04-20 16:21 | 38.90264 | 16.26539 | 135 ft | 133 kts | 276° |
| 2026-04-20 16:22 | 38.90402 | 16.25412 | 48 ft | 119 kts | 277° |
| 2026-04-20 16:22 | 38.90497 | 16.24610 | 39 ft | 61 kts | 278° |
| 2026-04-20 16:22 | 38.90539 | 16.24247 | 34 ft | 34 kts | 278° |
| 2026-04-20 16:22 | 38.90576 | 16.23923 | 34 ft | 39 kts | 279° |
| 2026-04-20 16:23 | 38.90632 | 16.23658 | 33 ft | 30 kts | 300° |
| 2026-04-20 16:23 | 38.90748 | 16.23489 | 32 ft | 1 kts | 334° |
| 2026-04-20 16:24 | 38.90775 | 16.23486 | 32 ft | 13 kts | 14° |
| 2026-04-20 16:24 | 38.90828 | 16.23654 | 33 ft | 15 kts | 96° |
| 2026-04-20 16:24 | 38.90816 | 16.23783 | 34 ft | 14 kts | 98° |
| 2026-04-20 16:25 | 38.90802 | 16.23907 | 35 ft | 14 kts | 98° |
| 2026-04-20 16:25 | 38.90788 | 16.24025 | 36 ft | 13 kts | 98° |
| 2026-04-20 16:25 | 38.90780 | 16.24140 | 37 ft | 13 kts | 81° |
| 2026-04-20 16:25 | 38.90823 | 16.24236 | 36 ft | 12 kts | 62° |
| 2026-04-20 16:26 | 38.90825 | 16.24344 | 38 ft | 12 kts | 98° |
| 2026-04-20 16:26 | 38.90817 | 16.24409 | 39 ft | 0 kts | 98° |
| 2026-04-20 16:26 | 38.90814 | 16.24436 | 39 ft | 5 kts | 98° |
| 2026-04-20 16:27 | 38.90805 | 16.24517 | 39 ft | 17 kts | 98° |
| 2026-04-20 16:27 | 38.90778 | 16.24737 | 41 ft | 33 kts | 98° |
| 2026-04-20 16:27 | 38.90767 | 16.24876 | 42 ft | 7 kts | 62° |
| 2026-04-20 16:27 | 38.90808 | 16.24894 | 42 ft | 3 kts | 10° |
| 2026-04-20 16:28 | 38.90810 | 16.24895 | 42 ft | 0 kts | 10° |
| 2026-04-20 16:28 | 38.90816 | 16.24896 | 42 ft | 0 kts | 10° |
| 2026-04-20 16:29 | 38.90824 | 16.24898 | 42 ft | 0 kts | 11° |
| 2026-04-20 16:29 | 38.90863 | 16.24615 | 38 ft | 0 kts | 53° |